地図

経路データ

SID SEASON NUMBER BASIN SUBBASIN NAME ISO_TIME NATURE LAT LON WMO_WIND WMO_PRES WMO_AGENCY TRACK_TYPE DIST2LAND LANDFALL IFLAG USA_AGENCY USA_ATCF_ID USA_LAT USA_LON USA_RECORD USA_STATUS USA_WIND USA_PRES USA_SSHS USA_R34_NE USA_R34_SE USA_R34_SW USA_R34_NW USA_R50_NE USA_R50_SE USA_R50_SW USA_R50_NW USA_R64_NE USA_R64_SE USA_R64_SW USA_R64_NW USA_POCI USA_ROCI USA_RMW USA_EYE TOKYO_LAT TOKYO_LON TOKYO_GRADE TOKYO_WIND TOKYO_PRES TOKYO_R50_DIR TOKYO_R50_LONG TOKYO_R50_SHORT TOKYO_R30_DIR TOKYO_R30_LONG TOKYO_R30_SHORT TOKYO_LAND CMA_LAT CMA_LON CMA_CAT CMA_WIND CMA_PRES HKO_LAT HKO_LON HKO_CAT HKO_WIND HKO_PRES NEWDELHI_LAT NEWDELHI_LON NEWDELHI_GRADE NEWDELHI_WIND NEWDELHI_PRES NEWDELHI_CI NEWDELHI_DP NEWDELHI_POCI REUNION_LAT REUNION_LON REUNION_TYPE REUNION_WIND REUNION_PRES REUNION_TNUM REUNION_CI REUNION_RMW REUNION_R34_NE REUNION_R34_SE REUNION_R34_SW REUNION_R34_NW REUNION_R50_NE REUNION_R50_SE REUNION_R50_SW REUNION_R50_NW REUNION_R64_NE REUNION_R64_SE REUNION_R64_SW REUNION_R64_NW BOM_LAT BOM_LON BOM_TYPE BOM_WIND BOM_PRES BOM_TNUM BOM_CI BOM_RMW BOM_R34_NE BOM_R34_SE BOM_R34_SW BOM_R34_NW BOM_R50_NE BOM_R50_SE BOM_R50_SW BOM_R50_NW BOM_R64_NE BOM_R64_SE BOM_R64_SW BOM_R64_NW BOM_ROCI BOM_POCI BOM_EYE BOM_POS_METHOD BOM_PRES_METHOD NADI_LAT NADI_LON NADI_CAT NADI_WIND NADI_PRES WELLINGTON_LAT WELLINGTON_LON WELLINGTON_WIND WELLINGTON_PRES DS824_LAT DS824_LON DS824_STAGE DS824_WIND DS824_PRES TD9636_LAT TD9636_LON TD9636_STAGE TD9636_WIND TD9636_PRES TD9635_LAT TD9635_LON TD9635_WIND TD9635_PRES TD9635_ROCI NEUMANN_LAT NEUMANN_LON NEUMANN_CLASS NEUMANN_WIND NEUMANN_PRES MLC_LAT MLC_LON MLC_CLASS MLC_WIND MLC_PRES USA_GUST BOM_GUST BOM_GUST_PER REUNION_GUST REUNION_GUST_PER USA_SEAHGT USA_SEARAD_NE USA_SEARAD_SE USA_SEARAD_SW USA_SEARAD_NW STORM_SPEED STORM_DIR
1973188S17161 1974 61 SP MM NOT_NAMED 1973-07-07 00:00:00 TS -16.9000 160.500 main 529 469 O________OO___ jtwc_sh SH011974 -16.9000 160.500 -1 -16.9000 160.500 TC -16.9000 160.500 2 17 179
1973188S17161 1974 61 SP MM NOT_NAMED 1973-07-07 03:00:00 TS -17.7344 160.518 main 469 409 P________PP___ SH011974 -17.7602 160.515 -1 -17.7602 160.515 TC -17.6830 160.526 2 17 176
1973188S17161 1974 61 SP MM NOT_NAMED 1973-07-07 06:00:00 TS -18.5642 160.607 main 404 349 O________OP___ jtwc_sh SH011974 -18.6000 160.600 -1 -18.6000 160.600 TC -18.4926 160.620 2 17 170
1973188S17161 1974 61 SP MM NOT_NAMED 1973-07-07 09:00:00 TS -19.3983 160.839 main 349 281 P________PP___ SH011974 -19.4195 160.831 -1 -19.4195 160.831 TC -19.3560 160.854 2 19 159
1973188S17161 1974 61 SP MM NOT_NAMED 1973-07-07 12:00:00 TS -20.3000 161.300 main 281 231 O________OO___ jtwc_sh SH011974 -20.3000 161.300 -1 -20.3000 161.300 TC -20.3000 161.300 2 23 150
1973188S17161 1974 61 SP MM NOT_NAMED 1973-07-07 15:00:00 TS -21.3484 162.059 main 226 221 P________PP___ SH011974 -21.3582 162.088 -1 -21.3582 162.088 TC -21.3288 161.999 2 26 144
1973188S17161 1974 61 SP MM NOT_NAMED 1973-07-07 18:00:00 TS -22.3860 162.952 main 225 222 O________OP___ jtwc_sh SH011974 -22.4000 163.000 -1 -22.4000 163.000 TC -22.3580 162.856 2 25 141
1973188S17161 1974 61 SP MM NOT_NAMED 1973-07-07 21:00:00 TS -23.3076 163.800 main 240 240 P________PP___ SH011974 -23.3201 163.832 -1 -23.3201 163.832 TC -23.2826 163.737 2 22 139
1973188S17161 1974 61 SP MM NOT_NAMED 1973-07-08 00:00:00 TS -24.0000 164.500 main 268 267 O________OO___ jtwc_sh SH011974 -24.0000 164.500 -1 -24.0000 164.500 TC -24.0000 164.500 2 15 137
1973188S17161 1974 61 SP MM NOT_NAMED 1973-07-08 03:00:00 TS -24.3668 164.897 main 280 274 P________PP___ SH011974 -24.3543 164.869 -1 -24.3543 164.869 TC -24.3918 164.954 2 8 131
1973188S17161 1974 61 SP MM NOT_NAMED 1973-07-08 06:00:00 TS -24.5263 165.155 main 274 274 O________OP___ jtwc_sh SH011974 -24.5000 165.100 -1 -24.5000 165.100 TC -24.5790 165.265 2 6 118
1973188S17161 1974 61 SP MM NOT_NAMED 1973-07-08 09:00:00 TS -24.6273 165.436 main 276 272 P________PP___ SH011974 -24.6150 165.408 -1 -24.6150 165.408 TC -24.6520 165.493 2 5 109
1973188S17161 1974 61 SP MM NOT_NAMED 1973-07-08 12:00:00 TS -24.7000 165.700 main 276 272 O________OO___ jtwc_sh SH011974 -24.7000 165.700 -1 -24.7000 165.700 TC -24.7000 165.700 2 5 115
1973188S17161 1974 61 SP MM NOT_NAMED 1973-07-08 15:00:00 TS -24.8331 165.933 main 280 277 P________PP___ SH011974 -24.8424 165.950 -1 -24.8424 165.950 TC -24.8147 165.899 2 5 123
1973188S17161 1974 61 SP MM NOT_NAMED 1973-07-08 18:00:00 TS -24.9765 166.168 main 295 293 O________OP___ jtwc_sh SH011974 -25.0000 166.200 -1 -25.0000 166.200 TC -24.9294 166.104 2 5 122
1973188S17161 1974 61 SP MM NOT_NAMED 1973-07-08 21:00:00 TS -25.1062 166.421 main 303 302 P________PP___ SH011974 -25.1195 166.441 -1 -25.1195 166.441 TC -25.0795 166.382 2 7 119
1973188S17161 1974 61 SP MM NOT_NAMED 1973-07-09 00:00:00 TS -25.3000 166.800 main 324 324 O________OO___ jtwc_sh SH011974 -25.3000 166.800 -1 -25.3000 166.800 TC -25.3000 166.800 2 10 121
1973188S17161 1974 61 SP MM NOT_NAMED 1973-07-09 03:00:00 TS -25.6236 167.379 main 361 361 P________PP___ SH011974 -25.6046 167.353 -1 -25.6046 167.353 TC -25.6616 167.430 2 14 121
1973188S17161 1974 61 SP MM NOT_NAMED 1973-07-09 06:00:00 TS -26.0287 168.136 main 420 420 O________OP___ jtwc_sh SH011974 -26.0000 168.100 -1 -26.0000 168.100 TC -26.0862 168.208 2 17 120
1973188S17161 1974 61 SP MM NOT_NAMED 1973-07-09 09:00:00 TS -26.4827 169.035 main 504 504 P________PP___ SH011974 -26.4653 169.012 -1 -26.4653 169.012 TC -26.5175 169.083 2 19 118
1973188S17161 1974 61 SP MM NOT_NAMED 1973-07-09 12:00:00 TS -26.9000 170.000 main 592 592 O________OO___ jtwc_sh SH011974 -26.9000 170.000 -1 -26.9000 170.000 TC -26.9000 170.000 2 18 113
1973188S17161 1974 61 SP MM NOT_NAMED 1973-07-09 15:00:00 TS -27.1938 170.910 main 671 671 P________PP___ SH011974 -27.1943 170.908 -1 -27.1943 170.908 TC -27.1929 170.913 2 17 107
1973188S17161 1974 61 SP MM NOT_NAMED 1973-07-09 18:00:00 TS -27.4026 171.805 main 745 745 O________OP___ jtwc_sh SH011974 -27.4000 171.800 -1 -27.4000 171.800 TC -27.4077 171.814 2 16 103
1973188S17161 1974 61 SP MM NOT_NAMED 1973-07-09 21:00:00 TS -27.5637 172.701 main 769 759 P________PP___ SH011974 -27.5612 172.697 -1 -27.5612 172.697 TC -27.5687 172.709 2 16 101
1973188S17161 1974 61 SP MM NOT_NAMED 1973-07-10 00:00:00 TS -27.7000 173.600 main 760 O________OO___ jtwc_sh SH011974 -27.7000 173.600 -1 -27.7000 173.600 TC -27.7000 173.600 2 16 100

デジタル台風データ・検索

IBTrACS Databaseについて

本データベースは、米国NOAAが公開する1842年以降の世界の熱帯低気圧のベストトラックデータアーカイブInternational Best Track Archive for Climate Stewardship (IBTrACS)を、ウェブで閲覧しやすい形式に変換したものです。

最終更新日:2021-11-26